Main page
METAR-TAF:

METAR-TAF

Airports :

Belgrade Nikola Tesla Airport

Belgrade, Serbia

latitude: 44-49N, longitude: 020-17E, elevation: 96 m

Current weather observation

The report was made 31 minutes ago, at 20:00 UTC
Wind 6 kt from the East/Northeast
Temperature 8°C
Humidity 71%
Pressure 1025 hPa
Visibility 10 km or more
no clouds below 1500 m and no cumulonimbus

METAR: LYBE 282000Z 06006KT CAVOK 08/03 Q1025 NOSIG

Time: 22:31 (20:31 UTC)

Forecast

The report was made 3 hours and 31 minutes ago, at 17:00 UTC
Forecast valid from 28 at 18 UTC to 29 at 18 UTC
Wind 6 kt from the East/Northeast
Visibility: 8000 m
Temporary
from 28 at 22 UTC to 29 at 04 UTC
Visibility: 3000 m
mist
Becoming
from 29 at 07 UTC to 29 at 09 UTC
Wind 12 kt from the East/Southeast

TAF: LYBE 281700Z 2818/2918 06006KT 8000 NSC TX17/2913Z TN04/2905Z TEMPO 2822/2904 3000 BR BECMG 2907/2909 12012KT

Weather observations and forecasts of more than 4000 airports (METAR and TAF reports).

The available stations are represented by yellow and red dots on the map.

Hover mouse over dot to see the name of the station.

Then click to see weather observations and forecasts.

To change the map : click on the green buttons with a black cross to zoom in, on the green button with a dash to zoom out, or on the green arrows for adjacent maps.


METAR-TAF: